Time;durP1;ratioP1;P1;durP2;ratioP2;P2;SDS_P1;SDS_P2;PMS_P1;PMS_P2;Temp;Humidity;BMP_temperature;BMP_pressure;BME280_temperature;BME280_humidity;BME280_pressure;Samples;Min_cycle;Max_cycle;Signal;HPM_P1;HPM_P2
2022/03/05 00:00:37;;;;;;;13.30;5.47;;;1.20;99.90;;;;;;4159780;28;20566;-76
2022/03/05 00:02:40;;;;;;;11.73;5.13;;;1.20;99.90;;;;;;4159899;28;20894;-74
2022/03/05 00:04:42;;;;;;;13.00;5.53;;;1.20;99.90;;;;;;4160886;28;20522;-77
2022/03/05 00:06:44;;;;;;;15.17;5.57;;;1.10;99.90;;;;;;4161188;28;20994;-76
2022/03/05 00:08:45;;;;;;;11.53;5.53;;;1.10;99.90;;;;;;4161305;28;20920;-76
2022/03/05 00:10:48;;;;;;;11.93;5.60;;;1.00;99.90;;;;;;4160491;28;20470;-76
2022/03/05 00:12:50;;;;;;;10.80;5.00;;;1.00;99.90;;;;;;4158932;28;20934;-77
2022/03/05 00:14:53;;;;;;;9.50;5.23;;;1.00;99.90;;;;;;4158485;28;20952;-76
2022/03/05 00:16:54;;;;;;;14.47;5.70;;;0.90;99.90;;;;;;4159343;28;20511;-77
2022/03/05 00:18:56;;;;;;;12.90;5.40;;;0.90;99.90;;;;;;4162690;28;20470;-76
2022/03/05 00:20:58;;;;;;;13.83;5.40;;;0.90;99.90;;;;;;4164845;28;20485;-76
2022/03/05 00:23:00;;;;;;;16.00;5.33;;;0.80;99.90;;;;;;4161489;28;20549;-76
2022/03/05 00:25:01;;;;;;;12.50;5.63;;;0.80;99.90;;;;;;4165552;28;20462;-76
2022/03/05 00:27:07;;;;;;;13.13;5.60;;;0.80;99.90;;;;;;4165368;28;20860;-76
2022/03/05 00:29:09;;;;;;;13.63;5.53;;;0.70;99.90;;;;;;4158573;28;20462;-76
2022/03/05 00:31:12;;;;;;;14.00;5.17;;;0.70;99.90;;;;;;4162624;28;20479;-77
2022/03/05 00:33:14;;;;;;;12.93;5.60;;;0.70;99.90;;;;;;4170309;28;20481;-76
2022/03/05 00:35:17;;;;;;;11.83;5.40;;;0.60;99.90;;;;;;4162239;28;20457;-76
2022/03/05 00:37:19;;;;;;;16.97;5.43;;;0.60;99.90;;;;;;4162466;28;20494;-76
2022/03/05 00:39:20;;;;;;;14.23;5.07;;;0.60;99.90;;;;;;4159125;28;20458;-76
2022/03/05 00:41:22;;;;;;;12.57;5.97;;;0.60;99.90;;;;;;4151306;28;20492;-77
2022/03/05 00:43:24;;;;;;;11.80;5.70;;;0.60;99.90;;;;;;4153444;28;20498;-77
2022/03/05 00:45:26;;;;;;;15.70;6.23;;;0.50;99.90;;;;;;4152189;28;20463;-76
2022/03/05 00:47:29;;;;;;;12.50;6.27;;;0.50;99.90;;;;;;4159607;28;20504;-75
2022/03/05 00:49:31;;;;;;;10.20;4.90;;;0.50;99.90;;;;;;4152638;28;20458;-76
2022/03/05 00:51:33;;;;;;;13.13;5.73;;;0.40;99.90;;;;;;4154454;28;20477;-76
2022/03/05 00:53:34;;;;;;;12.83;5.60;;;0.40;99.90;;;;;;4153522;28;20453;-76
2022/03/05 00:55:36;;;;;;;14.53;6.03;;;0.40;99.90;;;;;;4153509;28;20988;-76
2022/03/05 00:57:38;;;;;;;13.10;5.30;;;0.30;99.90;;;;;;4155266;28;20451;-76
2022/03/05 00:59:41;;;;;;;13.07;5.40;;;0.30;99.90;;;;;;4156776;28;20470;-76
2022/03/05 01:01:42;;;;;;;10.90;5.30;;;0.30;99.90;;;;;;4163215;28;21073;-76
2022/03/05 01:03:46;;;;;;;13.00;5.13;;;0.30;99.90;;;;;;4163097;28;20828;-74
2022/03/05 01:05:47;;;;;;;12.43;5.97;;;0.30;99.90;;;;;;4164226;28;20959;-76
2022/03/05 01:07:49;;;;;;;10.77;5.20;;;0.20;99.90;;;;;;4164414;28;20478;-77
2022/03/05 01:09:51;;;;;;;10.97;5.50;;;0.20;99.90;;;;;;4166675;28;20512;-76
2022/03/05 01:11:52;;;;;;;11.87;5.13;;;0.10;99.90;;;;;;4166307;28;20485;-75
2022/03/05 01:13:54;;;;;;;10.63;4.97;;;0.10;99.90;;;;;;4164731;28;20881;-76
2022/03/05 01:15:56;;;;;;;11.13;4.80;;;0.10;99.90;;;;;;4162827;28;20454;-77
2022/03/05 01:17:58;;;;;;;11.23;5.20;;;0.10;99.90;;;;;;4162688;28;20475;-77
2022/03/05 01:20:01;;;;;;;14.90;5.83;;;0.60;99.90;;;;;;4159625;28;20488;-77
2022/03/05 01:22:03;;;;;;;13.10;4.90;;;0.00;99.90;;;;;;4165839;28;20473;-77
2022/03/05 01:24:06;;;;;;;15.17;5.20;;;0.00;99.90;;;;;;4165739;28;20445;-76
2022/03/05 01:26:07;;;;;;;12.83;5.30;;;0.00;99.90;;;;;;4163981;28;20466;-76
2022/03/05 01:28:09;;;;;;;11.90;5.17;;;0.00;99.90;;;;;;4164886;28;20499;-76
2022/03/05 01:30:12;;;;;;;12.03;4.40;;;0.00;99.90;;;;;;4164627;28;20524;-75
2022/03/05 01:32:14;;;;;;;12.77;5.63;;;-0.10;99.90;;;;;;4165805;28;20520;-77
2022/03/05 01:34:16;;;;;;;12.30;4.03;;;-0.10;99.90;;;;;;4160429;28;20475;-77
2022/03/05 01:36:19;;;;;;;11.43;5.13;;;-0.10;99.90;;;;;;4159775;28;20451;-76
2022/03/05 01:38:21;;;;;;;11.77;5.37;;;-0.10;99.90;;;;;;4165929;28;20451;-77
2022/03/05 01:40:22;;;;;;;10.63;4.73;;;0.00;99.90;;;;;;4165516;28;20474;-76
2022/03/05 01:42:26;;;;;;;9.77;4.47;;;-0.10;99.90;;;;;;4165981;28;20493;-77
2022/03/05 01:44:28;;;;;;;12.93;5.10;;;-0.40;99.90;;;;;;4160725;28;20465;-75
2022/03/05 01:46:31;;;;;;;9.20;4.40;;;-0.20;99.90;;;;;;4164307;28;20465;-75
2022/03/05 01:48:33;;;;;;;10.37;4.60;;;-0.20;99.90;;;;;;4156125;28;20972;-75
2022/03/05 01:50:35;;;;;;;7.97;3.80;;;-0.10;99.90;;;;;;4149322;28;20815;-77
2022/03/05 01:52:38;;;;;;;10.90;4.23;;;-0.20;99.90;;;;;;4149778;28;20472;-77
2022/03/05 01:54:40;;;;;;;8.57;4.10;;;-0.20;99.90;;;;;;4153987;28;20982;-75
2022/03/05 01:56:43;;;;;;;10.80;4.30;;;-0.20;99.90;;;;;;4161941;28;20478;-74
2022/03/05 01:58:46;;;;;;;7.80;3.67;;;-0.20;99.90;;;;;;4164157;28;20488;-77
2022/03/05 02:00:48;;;;;;;8.73;4.00;;;-0.20;99.90;;;;;;4167417;28;20552;-76
2022/03/05 02:02:50;;;;;;;10.17;4.17;;;-0.20;99.90;;;;;;4170943;28;20569;-76
2022/03/05 02:04:52;;;;;;;10.97;5.03;;;-0.20;99.90;;;;;;4166215;28;20473;-75
2022/03/05 02:06:54;;;;;;;9.80;4.70;;;-0.20;99.90;;;;;;4168764;28;20520;-76
2022/03/05 02:08:58;;;;;;;9.47;4.60;;;-0.20;99.90;;;;;;4166317;28;20513;-76
2022/03/05 02:10:59;;;;;;;11.03;4.87;;;-0.20;99.90;;;;;;4165487;28;20477;-76
2022/03/05 02:13:01;;;;;;;9.10;4.60;;;-0.20;99.90;;;;;;4164323;28;20831;-77
2022/03/05 02:15:04;;;;;;;16.53;5.87;;;-0.10;99.90;;;;;;4165207;28;20449;-76
2022/03/05 02:17:06;;;;;;;11.73;5.23;;;-0.30;99.90;;;;;;4165121;28;20458;-76
2022/03/05 02:19:08;;;;;;;11.77;5.40;;;-0.20;99.90;;;;;;4165659;28;20458;-77
2022/03/05 02:21:11;;;;;;;9.73;4.63;;;-0.20;99.90;;;;;;4167442;28;20719;-77
2022/03/05 02:23:12;;;;;;;10.10;4.93;;;-0.20;99.90;;;;;;4159569;28;20998;-75
2022/03/05 02:25:14;;;;;;;11.20;5.13;;;-0.20;99.90;;;;;;4169809;28;20461;-77
2022/03/05 02:27:16;;;;;;;8.87;4.87;;;-0.20;99.90;;;;;;4168591;28;20474;-77
2022/03/05 02:29:18;;;;;;;8.00;4.23;;;-0.20;99.90;;;;;;4170398;28;20466;-76
2022/03/05 02:31:20;;;;;;;10.70;4.90;;;-0.20;99.90;;;;;;4164645;28;20488;-77
2022/03/05 02:33:22;;;;;;;9.90;4.40;;;-0.20;99.90;;;;;;4166017;28;20823;-76
2022/03/05 02:35:24;;;;;;;10.73;4.60;;;-0.20;99.90;;;;;;4164825;28;20481;-76
2022/03/05 02:37:27;;;;;;;6.77;3.93;;;0.20;99.90;;;;;;4165059;28;20462;-77
2022/03/05 02:39:29;;;;;;;8.07;3.50;;;-0.10;99.90;;;;;;4163567;28;20599;-75
2022/03/05 02:41:31;;;;;;;8.53;3.97;;;-0.10;99.90;;;;;;4165336;28;20482;-76
2022/03/05 02:43:32;;;;;;;8.57;3.73;;;-0.10;99.90;;;;;;4165268;28;20774;-77
2022/03/05 02:45:35;;;;;;;8.60;3.83;;;-0.10;99.90;;;;;;4164779;28;20466;-77
2022/03/05 02:47:36;;;;;;;8.07;3.80;;;-0.10;99.90;;;;;;4158929;28;20511;-77
2022/03/05 02:49:38;;;;;;;7.27;3.40;;;-0.10;99.90;;;;;;4148442;28;20459;-77
2022/03/05 02:51:40;;;;;;;8.23;3.80;;;-0.10;99.90;;;;;;4148087;28;21051;-76
2022/03/05 02:53:43;;;;;;;7.50;3.60;;;-0.10;99.90;;;;;;4155551;28;20475;-76
2022/03/05 02:55:46;;;;;;;6.63;3.67;;;-0.10;99.90;;;;;;4162122;28;20466;-76
2022/03/05 02:57:47;;;;;;;9.93;3.73;;;-0.10;99.90;;;;;;4155153;28;20471;-76
2022/03/05 02:59:49;;;;;;;8.70;3.97;;;-0.10;99.90;;;;;;4164205;28;20961;-76
2022/03/05 03:01:51;;;;;;;7.97;3.63;;;0.00;99.90;;;;;;4157125;28;20470;-78
2022/03/05 03:03:52;;;;;;;7.37;3.90;;;0.00;99.90;;;;;;4164327;28;20494;-76
2022/03/05 03:05:54;;;;;;;7.73;3.83;;;0.00;99.90;;;;;;4154733;28;20477;-76
2022/03/05 03:07:56;;;;;;;6.90;3.70;;;0.00;99.90;;;;;;4162794;28;20462;-75
2022/03/05 03:09:59;;;;;;;7.43;3.60;;;0.00;99.90;;;;;;4163862;28;21001;-76
2022/03/05 03:12:01;;;;;;;5.67;3.57;;;0.00;99.90;;;;;;4163770;28;20481;-76
2022/03/05 03:14:03;;;;;;;7.23;3.90;;;0.00;99.90;;;;;;4150867;28;20900;-76
2022/03/05 03:16:05;;;;;;;8.73;3.67;;;0.00;99.90;;;;;;4163427;28;20468;-77
2022/03/05 03:18:07;;;;;;;8.40;4.20;;;0.00;99.90;;;;;;4164164;28;20477;-77
2022/03/05 03:20:11;;;;;;;6.63;3.60;;;0.00;99.90;;;;;;4162379;28;20475;-77
2022/03/05 03:22:14;;;;;;;8.47;3.63;;;0.00;99.90;;;;;;4163644;28;20479;-78
2022/03/05 03:24:16;;;;;;;8.67;3.50;;;0.00;99.90;;;;;;4158856;28;20847;-77
2022/03/05 03:26:19;;;;;;;7.90;3.37;;;-0.10;99.90;;;;;;4163745;28;20472;-77
2022/03/05 03:28:21;;;;;;;6.80;3.10;;;-0.10;99.90;;;;;;4163517;28;20544;-75
2022/03/05 03:30:23;;;;;;;7.37;3.50;;;-0.10;99.90;;;;;;4164467;28;20551;-77
2022/03/05 03:32:24;;;;;;;7.87;3.50;;;-0.10;99.90;;;;;;4164531;28;20506;-73
2022/03/05 03:34:26;;;;;;;5.83;3.40;;;-0.20;99.90;;;;;;4151232;28;20517;-78
2022/03/05 03:36:28;;;;;;;6.43;3.30;;;-0.20;99.90;;;;;;4163217;28;20516;-76
2022/03/05 03:38:30;;;;;;;6.60;3.13;;;-0.20;99.90;;;;;;4162935;28;20467;-76
2022/03/05 03:40:32;;;;;;;6.13;3.33;;;-0.20;99.90;;;;;;4162463;28;20485;-74
2022/03/05 03:42:36;;;;;;;7.73;3.73;;;-0.30;99.90;;;;;;4147599;28;20468;-78
2022/03/05 03:44:38;;;;;;;6.33;3.20;;;0.00;99.90;;;;;;4146328;28;20487;-76
2022/03/05 03:46:40;;;;;;;8.63;3.20;;;-0.30;99.90;;;;;;4151192;28;20541;-77
2022/03/05 03:48:42;;;;;;;10.80;3.50;;;-0.40;99.90;;;;;;4157168;28;20470;-77
2022/03/05 03:50:44;;;;;;;6.37;3.30;;;-0.40;99.90;;;;;;4161371;28;20473;-75
2022/03/05 03:52:46;;;;;;;7.60;3.57;;;-0.40;99.90;;;;;;4163649;28;20485;-76
2022/03/05 03:54:49;;;;;;;5.67;3.10;;;-0.40;99.90;;;;;;4163377;28;20939;-75
2022/03/05 03:56:51;;;;;;;8.27;3.70;;;-0.50;99.90;;;;;;4157138;28;20470;-76
2022/03/05 03:58:54;;;;;;;6.53;3.20;;;-0.50;99.90;;;;;;4163501;28;20458;-77
2022/03/05 04:00:55;;;;;;;5.80;3.10;;;-0.50;99.90;;;;;;4164204;28;21043;-76
2022/03/05 04:02:57;;;;;;;9.33;3.83;;;-0.50;99.90;;;;;;4163715;28;20525;-77
2022/03/05 04:04:59;;;;;;;7.53;3.30;;;-0.60;99.90;;;;;;4157850;28;20892;-77
2022/03/05 04:09:20;;;;;;;10.37;3.57;;;-0.60;99.90;;;;;;4163003;28;21009;-75
2022/03/05 04:11:22;;;;;;;7.83;3.43;;;-0.60;99.90;;;;;;4163951;28;20485;-74
2022/03/05 04:13:23;;;;;;;7.77;3.73;;;-0.60;99.90;;;;;;4159815;28;20520;-76
2022/03/05 04:15:26;;;;;;;6.60;3.40;;;-0.70;99.90;;;;;;4163113;28;20943;-76
2022/03/05 04:17:28;;;;;;;8.93;3.83;;;-0.70;99.90;;;;;;4162654;28;20462;-76
2022/03/05 04:19:30;;;;;;;7.60;4.13;;;-0.70;99.90;;;;;;4148886;28;20537;-76
2022/03/05 04:21:32;;;;;;;8.97;3.50;;;-0.70;99.90;;;;;;4157726;28;20481;-77
2022/03/05 04:23:34;;;;;;;8.93;3.70;;;-0.80;99.90;;;;;;4166293;28;20540;-76
2022/03/05 04:25:35;;;;;;;6.27;3.73;;;-0.80;99.90;;;;;;4167016;28;20935;-77
2022/03/05 04:27:37;;;;;;;7.70;4.03;;;0.20;99.90;;;;;;4165976;28;20457;-77
2022/03/05 04:29:39;;;;;;;8.40;4.20;;;-0.80;99.90;;;;;;4164574;28;20463;-77
2022/03/05 04:31:42;;;;;;;8.47;4.30;;;-0.80;99.90;;;;;;4156490;28;20907;-76
2022/03/05 04:33:44;;;;;;;6.80;3.87;;;-0.90;99.90;;;;;;4164949;28;20472;-77
2022/03/05 04:35:45;;;;;;;10.80;4.30;;;-0.90;99.90;;;;;;4161672;28;20470;-77
2022/03/05 04:37:47;;;;;;;8.57;4.40;;;-0.90;99.90;;;;;;4163324;28;20995;-77
2022/03/05 04:39:49;;;;;;;11.10;4.63;;;-0.90;99.90;;;;;;4154519;28;20525;-76
2022/03/05 04:41:51;;;;;;;11.27;4.80;;;-1.00;99.90;;;;;;4149891;28;20609;-75
2022/03/05 04:43:52;;;;;;;12.50;5.30;;;-0.90;99.90;;;;;;4149729;28;20911;-74
2022/03/05 04:45:54;;;;;;;10.10;5.00;;;-1.00;99.90;;;;;;4149945;28;20462;-76
2022/03/05 04:47:57;;;;;;;8.27;4.47;;;-0.70;99.90;;;;;;4154320;28;20508;-75
2022/03/05 04:49:59;;;;;;;8.17;4.47;;;-1.00;99.90;;;;;;4165825;28;20535;-75
2022/03/05 04:52:01;;;;;;;9.30;4.57;;;-1.00;99.90;;;;;;4166530;28;20484;-75
2022/03/05 04:54:03;;;;;;;10.23;4.70;;;-1.10;99.90;;;;;;4164489;28;20855;-76
2022/03/05 04:56:05;;;;;;;9.60;4.83;;;-1.10;99.90;;;;;;4163708;28;20482;-75
2022/03/05 04:58:07;;;;;;;9.37;4.47;;;-1.10;99.90;;;;;;4165489;28;20465;-75
2022/03/05 05:00:10;;;;;;;12.10;5.20;;;-1.10;99.90;;;;;;4165892;28;20453;-76
2022/03/05 05:02:12;;;;;;;10.00;4.67;;;-1.10;99.90;;;;;;4165803;28;20482;-74
2022/03/05 05:04:15;;;;;;;12.03;5.57;;;-1.20;99.90;;;;;;4163434;28;20994;-76
2022/03/05 05:06:17;;;;;;;11.30;5.10;;;-1.20;99.90;;;;;;4160902;28;20528;-77
2022/03/05 05:08:20;;;;;;;9.93;4.93;;;-1.20;99.90;;;;;;4154357;28;20482;-77
2022/03/05 05:10:21;;;;;;;10.83;5.10;;;-1.20;99.90;;;;;;4165776;28;20549;-75
2022/03/05 05:12:24;;;;;;;8.83;4.93;;;-1.20;99.90;;;;;;4157747;28;20501;-75
2022/03/05 05:14:25;;;;;;;11.07;5.30;;;-1.20;99.90;;;;;;4165094;28;20453;-74
2022/03/05 05:16:27;;;;;;;11.33;5.13;;;-1.30;99.90;;;;;;4166358;28;20822;-77
2022/03/05 05:18:29;;;;;;;11.60;5.20;;;-1.20;99.90;;;;;;4157591;28;20457;-76
2022/03/05 05:20:32;;;;;;;10.77;4.83;;;-1.30;99.90;;;;;;4166134;28;20453;-76
2022/03/05 05:22:34;;;;;;;8.43;4.70;;;-1.30;99.90;;;;;;4153853;28;21050;-75
2022/03/05 05:24:37;;;;;;;10.90;4.83;;;-1.30;99.90;;;;;;4162600;28;20495;-76
2022/03/05 05:26:39;;;;;;;14.37;5.33;;;-1.30;99.90;;;;;;4165058;28;20465;-76
2022/03/05 05:28:40;;;;;;;12.73;5.37;;;-1.30;99.90;;;;;;4160680;28;20830;-77
2022/03/05 05:30:42;;;;;;;10.23;5.00;;;-1.70;99.90;;;;;;4160971;28;20970;-75
2022/03/05 05:32:44;;;;;;;11.37;5.30;;;-1.40;99.90;;;;;;4163959;28;20500;-74
2022/03/05 05:34:46;;;;;;;11.87;4.63;;;-1.40;99.90;;;;;;4164242;28;20466;-75
2022/03/05 05:36:49;;;;;;;8.90;4.53;;;-1.40;99.90;;;;;;4165543;28;20453;-76
2022/03/05 05:38:51;;;;;;;11.40;5.40;;;-1.40;99.90;;;;;;4164855;28;20457;-77
2022/03/05 05:40:52;;;;;;;10.75;5.45;;;-1.40;99.90;;;;;;4163256;28;20524;-76
2022/03/05 05:42:54;;;;;;;13.93;5.73;;;-1.40;99.90;;;;;;4164645;28;20276;-75
2022/03/05 05:44:56;;;;;;;12.40;5.63;;;-1.40;99.90;;;;;;4164491;28;20485;-73
2022/03/05 05:46:58;;;;;;;13.90;5.47;;;-1.40;99.90;;;;;;4152723;28;20467;-75
2022/03/05 05:49:00;;;;;;;11.20;5.60;;;-1.40;99.90;;;;;;4160851;28;20462;-77
2022/03/05 05:51:02;;;;;;;9.73;5.13;;;-1.40;99.90;;;;;;4161818;28;20231;-76
2022/03/05 05:53:05;;;;;;;11.63;5.60;;;-1.40;99.90;;;;;;4164575;28;20891;-76
2022/03/05 05:55:08;;;;;;;9.33;5.10;;;-1.50;99.90;;;;;;4163678;28;20458;-75
2022/03/05 05:57:10;;;;;;;11.65;5.18;;;-1.50;99.90;;;;;;4163961;28;20963;-75
2022/03/05 05:59:11;;;;;;;11.40;5.50;;;-1.50;99.90;;;;;;4160630;28;20680;-76
2022/03/05 06:01:13;;;;;;;12.90;5.05;;;-1.50;99.90;;;;;;4148172;28;20494;-76
2022/03/05 06:03:15;;;;;;;11.73;5.87;;;-1.50;99.90;;;;;;4151967;28;20216;-75
2022/03/05 06:05:17;;;;;;;9.77;5.17;;;-1.50;99.90;;;;;;4164407;28;21014;-77
2022/03/05 06:07:19;;;;;;;10.70;5.20;;;-1.50;99.90;;;;;;4164923;28;20457;-77
2022/03/05 06:09:23;;;;;;;13.10;5.93;;;-1.40;99.90;;;;;;4160302;28;20477;-77
2022/03/05 06:11:24;;;;;;;9.90;5.27;;;-1.40;99.90;;;;;;4164172;28;20493;-72
2022/03/05 06:13:26;;;;;;;10.87;5.60;;;-1.40;99.90;;;;;;4164308;28;20951;-72
2022/03/05 06:15:28;;;;;;;11.13;5.60;;;-1.40;99.90;;;;;;4155559;28;20470;-72
2022/03/05 06:17:30;;;;;;;11.20;5.55;;;-1.40;99.90;;;;;;4160523;28;20561;-73
2022/03/05 06:19:31;;;;;;;11.87;5.40;;;-1.40;99.90;;;;;;4163460;28;20219;-74
2022/03/05 06:21:33;;;;;;;10.97;5.43;;;-1.30;99.90;;;;;;4163839;28;20891;-72
2022/03/05 06:23:36;;;;;;;10.93;5.20;;;-1.30;99.90;;;;;;4163371;28;21010;-72
2022/03/05 06:25:39;;;;;;;11.73;5.37;;;-1.30;99.90;;;;;;4148422;28;20517;-75
2022/03/05 06:27:41;;;;;;;9.67;5.37;;;-1.20;99.90;;;;;;4152454;28;21021;-74
2022/03/05 06:29:42;;;;;;;10.27;5.00;;;-1.20;99.90;;;;;;4163300;28;20519;-74
2022/03/05 06:31:46;;;;;;;11.43;5.07;;;-1.20;99.90;;;;;;4164155;28;20474;-75
2022/03/05 06:33:48;;;;;;;11.07;5.50;;;-1.20;99.90;;;;;;4158770;28;20470;-77
2022/03/05 06:35:50;;;;;;;8.93;4.80;;;-1.10;99.90;;;;;;4164450;28;20454;-77
2022/03/05 06:37:51;;;;;;;9.03;4.97;;;-1.10;99.90;;;;;;4163527;28;20459;-74
2022/03/05 06:39:53;;;;;;;11.30;4.93;;;-1.10;99.90;;;;;;4164125;28;20454;-74
2022/03/05 06:41:57;;;;;;;9.03;4.37;;;-1.10;99.90;;;;;;4162042;28;20857;-71
2022/03/05 06:43:59;;;;;;;9.30;4.67;;;-1.00;99.90;;;;;;4162936;28;20521;-71
2022/03/05 06:46:00;;;;;;;10.40;4.77;;;-1.00;99.90;;;;;;4164318;28;20508;-72
2022/03/05 06:48:02;;;;;;;9.27;4.73;;;-1.00;99.90;;;;;;4159032;28;20454;-78
2022/03/05 06:50:04;;;;;;;10.97;5.07;;;-1.00;99.90;;;;;;4163141;28;20887;-76
2022/03/05 06:52:07;;;;;;;8.80;4.63;;;-1.00;99.90;;;;;;4160809;28;20519;-73
2022/03/05 06:54:09;;;;;;;9.87;4.70;;;-0.90;99.90;;;;;;4161289;28;20992;-74
2022/03/05 06:56:10;;;;;;;9.10;4.93;;;-0.90;99.90;;;;;;4163873;28;20947;-74
2022/03/05 06:58:15;;;;;;;12.93;5.33;;;-0.90;99.90;;;;;;4161765;28;20473;-71
2022/03/05 07:00:17;;;;;;;12.17;5.23;;;-0.90;99.90;;;;;;4161721;28;20466;-72
2022/03/05 07:02:19;;;;;;;10.63;5.33;;;-0.80;99.90;;;;;;4163435;28;20481;-72
2022/03/05 07:04:21;;;;;;;10.73;5.63;;;-0.80;99.90;;;;;;4162825;28;20502;-74
2022/03/05 07:06:23;;;;;;;11.30;5.50;;;-0.70;99.90;;;;;;4155762;28;20541;-77
2022/03/05 07:08:24;;;;;;;11.40;5.70;;;-0.70;99.90;;;;;;4159227;28;20979;-73
2022/03/05 07:10:28;;;;;;;11.37;5.50;;;-0.70;99.90;;;;;;4163436;28;20692;-73
2022/03/05 07:12:30;;;;;;;11.00;5.87;;;-0.60;99.90;;;;;;4163657;28;20458;-73
2022/03/05 07:14:33;;;;;;;10.53;5.90;;;-0.60;99.90;;;;;;4158219;28;20460;-73
2022/03/05 07:16:35;;;;;;;10.27;5.83;;;-0.60;99.90;;;;;;4160300;28;20549;-74
2022/03/05 07:18:39;;;;;;;11.40;5.60;;;-0.60;99.90;;;;;;4157778;28;20447;-71
2022/03/05 07:20:41;;;;;;;10.87;5.67;;;-0.60;99.90;;;;;;4155641;28;20458;-72
2022/03/05 07:22:42;;;;;;;12.33;6.10;;;-0.50;99.90;;;;;;4162007;28;20442;-71
2022/03/05 07:24:45;;;;;;;12.97;5.17;;;-0.50;99.90;;;;;;4160737;28;20870;-71
2022/03/05 07:26:46;;;;;;;11.97;5.23;;;-0.50;99.90;;;;;;4160141;28;20521;-71
2022/03/05 07:28:50;;;;;;;10.03;5.17;;;-0.50;99.90;;;;;;4159695;28;20458;-72
2022/03/05 07:30:55;;;;;;;10.97;5.33;;;-0.40;99.90;;;;;;4162563;28;20483;-75
2022/03/05 07:32:57;;;;;;;10.50;5.10;;;-0.30;99.90;;;;;;4161070;28;20461;-71
2022/03/05 07:34:59;;;;;;;10.43;5.33;;;-0.30;99.90;;;;;;4158595;28;20462;-71
2022/03/05 07:37:00;;;;;;;12.13;6.10;;;-0.20;99.90;;;;;;4155644;28;20453;-72
2022/03/05 07:39:03;;;;;;;11.77;5.73;;;-0.20;99.90;;;;;;4158695;28;20455;-74
2022/03/05 07:41:05;;;;;;;11.80;5.40;;;-0.20;99.90;;;;;;4155935;28;20544;-71
2022/03/05 07:43:07;;;;;;;8.90;5.23;;;-0.10;99.90;;;;;;4155178;28;20464;-72
2022/03/05 07:45:09;;;;;;;9.43;5.33;;;-0.10;99.90;;;;;;4162256;28;20494;-73
2022/03/05 07:47:12;;;;;;;9.50;5.00;;;0.00;99.90;;;;;;4163227;28;21006;-72
2022/03/05 07:49:14;;;;;;;9.40;4.93;;;0.00;99.90;;;;;;4158328;28;20521;-76
2022/03/05 07:51:16;;;;;;;9.83;5.20;;;0.00;99.90;;;;;;4160487;28;20914;-72
2022/03/05 07:53:18;;;;;;;11.57;5.40;;;0.10;99.90;;;;;;4163525;28;20465;-72
2022/03/05 07:55:20;;;;;;;10.27;5.00;;;0.10;99.90;;;;;;4161398;28;20467;-72
2022/03/05 07:57:22;;;;;;;9.20;5.00;;;0.10;99.90;;;;;;4159253;28;20978;-72
2022/03/05 07:59:24;;;;;;;11.60;5.33;;;0.10;99.90;;;;;;4159484;28;20463;-72
2022/03/05 08:01:26;;;;;;;11.30;5.30;;;0.20;99.90;;;;;;4157030;28;20536;-72
2022/03/05 08:03:29;;;;;;;11.13;5.40;;;0.30;99.90;;;;;;4157582;28;20455;-72
2022/03/05 08:05:31;;;;;;;8.87;4.77;;;0.20;99.90;;;;;;4162552;28;20488;-72
2022/03/05 08:07:33;;;;;;;9.23;5.23;;;0.20;99.90;;;;;;4153684;28;20475;-73
2022/03/05 08:09:35;;;;;;;10.73;5.07;;;0.30;99.90;;;;;;4163499;28;20829;-74
2022/03/05 08:11:37;;;;;;;12.50;5.47;;;0.30;99.90;;;;;;4159374;28;20494;-72
2022/03/05 08:13:39;;;;;;;9.73;4.73;;;0.30;99.90;;;;;;4159891;28;20467;-72
2022/03/05 08:15:41;;;;;;;11.80;5.30;;;0.30;99.90;;;;;;4164521;28;20455;-73
2022/03/05 08:17:50;;;;;;;7.30;4.70;;;0.40;99.90;;;;;;4160414;28;20468;-75
2022/03/05 08:19:53;;;;;;;10.10;5.43;;;0.40;99.90;;;;;;4160998;28;20458;-74
2022/03/05 08:21:54;;;;;;;15.47;6.83;;;0.40;99.90;;;;;;4162240;28;20492;-73
2022/03/05 08:23:57;;;;;;;14.53;6.80;;;0.40;99.90;;;;;;4161281;28;20827;-76
2022/03/05 08:25:58;;;;;;;14.90;6.60;;;0.40;99.90;;;;;;4165656;28;20886;-74
2022/03/05 08:28:00;;;;;;;13.33;5.90;;;0.50;99.90;;;;;;4163244;28;20472;-76
2022/03/05 08:30:02;;;;;;;12.07;5.87;;;0.50;99.90;;;;;;4166059;28;20820;-74
2022/03/05 08:32:05;;;;;;;12.77;5.40;;;0.50;99.90;;;;;;4164702;28;20505;-75
2022/03/05 08:34:06;;;;;;;12.30;6.07;;;0.50;99.90;;;;;;4160871;28;21039;-73
2022/03/05 08:36:09;;;;;;;11.10;5.53;;;0.60;99.90;;;;;;4157642;28;20452;-76
2022/03/05 08:38:11;;;;;;;13.70;5.97;;;0.60;99.90;;;;;;4160299;28;20444;-76
2022/03/05 08:40:14;;;;;;;15.07;5.77;;;0.60;99.90;;;;;;4166539;28;20942;-74
2022/03/05 08:42:16;;;;;;;10.43;5.37;;;0.60;99.90;;;;;;4164124;28;20500;-72
2022/03/05 08:44:18;;;;;;;10.87;5.50;;;0.70;99.90;;;;;;4163259;28;20476;-75
2022/03/05 08:46:21;;;;;;;12.87;5.63;;;0.70;99.90;;;;;;4160731;28;20503;-74
2022/03/05 08:48:23;;;;;;;10.23;5.43;;;0.70;99.90;;;;;;4158333;28;20960;-74
2022/03/05 08:50:24;;;;;;;12.90;5.87;;;0.80;99.90;;;;;;4160361;28;20475;-73
2022/03/05 08:52:28;;;;;;;14.13;5.47;;;0.80;99.90;;;;;;4162642;28;20461;-74
2022/03/05 08:54:30;;;;;;;11.53;5.67;;;0.80;99.90;;;;;;4154615;28;20459;-73
2022/03/05 08:56:32;;;;;;;11.60;5.40;;;0.80;99.90;;;;;;4156905;28;20457;-77
2022/03/05 08:58:34;;;;;;;9.53;5.10;;;0.90;99.90;;;;;;4156604;28;20472;-74
2022/03/05 09:00:36;;;;;;;10.07;4.90;;;0.90;99.90;;;;;;4162944;28;20464;-74
2022/03/05 09:02:37;;;;;;;8.07;4.57;;;0.90;99.90;;;;;;4165114;28;20534;-73
2022/03/05 09:04:39;;;;;;;11.03;5.27;;;1.00;99.90;;;;;;4160510;28;20464;-73
2022/03/05 09:06:41;;;;;;;8.87;5.00;;;1.00;99.90;;;;;;4164024;28;20512;-75
2022/03/05 09:08:44;;;;;;;8.80;4.37;;;1.10;99.90;;;;;;4165968;28;20503;-76
2022/03/05 09:10:47;;;;;;;9.43;4.60;;;1.10;99.90;;;;;;4165815;28;20449;-75
2022/03/05 09:12:48;;;;;;;6.23;3.80;;;1.20;99.90;;;;;;4163078;28;20471;-76
2022/03/05 09:14:50;;;;;;;9.00;4.37;;;1.20;99.90;;;;;;4164465;28;20881;-74
2022/03/05 09:16:52;;;;;;;8.93;3.93;;;1.30;99.90;;;;;;4165547;28;20493;-74
2022/03/05 09:18:54;;;;;;;7.00;4.20;;;1.30;99.90;;;;;;4165269;28;20457;-74
2022/03/05 09:20:56;;;;;;;6.57;3.83;;;1.30;99.90;;;;;;4163365;28;20478;-74
2022/03/05 09:22:58;;;;;;;8.77;4.20;;;1.40;99.90;;;;;;4165663;28;20468;-75
2022/03/05 09:25:01;;;;;;;7.07;3.73;;;1.40;99.90;;;;;;4161450;28;20814;-74
2022/03/05 09:27:03;;;;;;;7.20;4.10;;;1.40;99.90;;;;;;4165043;28;21024;-77
2022/03/05 09:29:05;;;;;;;8.53;4.60;;;1.50;99.90;;;;;;4164394;28;20457;-75
2022/03/05 09:31:07;;;;;;;6.10;3.93;;;1.50;99.90;;;;;;4165365;28;20502;-76
2022/03/05 09:33:09;;;;;;;7.33;4.13;;;1.50;99.90;;;;;;4165212;28;20457;-73
2022/03/05 09:35:10;;;;;;;6.73;4.10;;;1.50;99.90;;;;;;4162162;28;20477;-73
2022/03/05 09:37:12;;;;;;;7.60;3.87;;;1.60;99.90;;;;;;4165404;28;20499;-73
2022/03/05 09:39:14;;;;;;;5.80;3.70;;;1.70;99.90;;;;;;4164514;28;20442;-77
2022/03/05 09:41:17;;;;;;;7.77;4.33;;;1.70;99.90;;;;;;4157500;28;20496;-73
2022/03/05 09:43:20;;;;;;;6.70;3.90;;;1.80;99.90;;;;;;4152326;28;21025;-75
2022/03/05 09:45:22;;;;;;;7.63;3.77;;;1.80;99.90;;;;;;4160846;28;20481;-74
2022/03/05 09:47:26;;;;;;;6.87;3.97;;;1.90;99.90;;;;;;4160319;28;20470;-71
2022/03/05 09:49:29;;;;;;;8.80;3.90;;;1.90;99.90;;;;;;4155894;28;20459;-75
2022/03/05 09:51:31;;;;;;;8.80;3.90;;;2.00;99.90;;;;;;4155309;28;20458;-77
2022/03/05 09:53:32;;;;;;;6.93;3.73;;;2.00;99.90;;;;;;4156571;28;20454;-73
2022/03/05 09:55:34;;;;;;;6.43;3.50;;;2.10;99.90;;;;;;4159841;28;20455;-72
2022/03/05 09:57:37;;;;;;;6.43;3.70;;;2.20;99.90;;;;;;4160693;28;20472;-72
2022/03/05 09:59:40;;;;;;;6.37;3.67;;;2.20;99.90;;;;;;4164868;28;20531;-73
2022/03/05 10:01:42;;;;;;;6.47;3.80;;;2.30;99.90;;;;;;4165432;28;20523;-72
2022/03/05 10:03:45;;;;;;;6.53;3.50;;;2.30;99.90;;;;;;4164483;28;20508;-74
2022/03/05 10:05:46;;;;;;;8.53;3.87;;;2.30;99.90;;;;;;4159565;28;21028;-73
2022/03/05 10:08:00;;;;;;;6.30;3.40;;;2.40;99.90;;;;;;4163734;28;20465;-75
2022/03/05 10:10:08;;;;;;;7.63;3.97;;;2.40;99.90;;;;;;4160771;28;20454;-75
2022/03/05 10:12:30;;;;;;;9.47;4.57;;;2.40;99.90;;;;;;4165200;28;20842;-77
2022/03/05 10:14:33;;;;;;;10.17;5.07;;;2.60;99.90;;;;;;4160653;28;20449;-75
2022/03/05 10:16:35;;;;;;;7.83;4.70;;;2.60;99.90;;;;;;4164782;28;21004;-74
2022/03/05 10:18:38;;;;;;;9.27;5.00;;;2.70;99.90;;;;;;4165180;28;20512;-76
2022/03/05 10:20:44;;;;;;;10.70;4.27;;;2.80;99.90;;;;;;4164488;28;20457;-76
2022/03/05 10:23:01;;;;;;;7.07;3.77;;;2.80;99.90;;;;;;4162867;28;21009;-74
2022/03/05 10:25:03;;;;;;;6.47;4.07;;;2.90;99.90;;;;;;4161920;28;21010;-75
2022/03/05 10:27:07;;;;;;;7.23;3.83;;;3.10;99.90;;;;;;4162774;28;20489;-75
2022/03/05 10:29:19;;;;;;;4.50;2.90;;;3.20;99.90;;;;;;4156215;28;20485;-76
2022/03/05 10:31:22;;;;;;;5.87;3.50;;;3.30;99.90;;;;;;4160155;28;20517;-74
2022/03/05 10:33:27;;;;;;;4.77;3.10;;;3.40;99.90;;;;;;4160476;28;20445;-74
2022/03/05 10:35:28;;;;;;;5.90;2.50;;;3.50;99.90;;;;;;4158661;28;20877;-74
2022/03/05 10:37:34;;;;;;;4.20;2.77;;;3.60;99.90;;;;;;4160059;28;20932;-73